sensor_id;sensor_type;location;lat;lon;timestamp;temperature;humidity
66831;DHT22;53739;44.224;22.528;2022-12-18T00:20:45;128.10;2252.80
66831;DHT22;53739;44.224;22.528;2022-12-18T00:23:11;128.20;2252.80
66831;DHT22;53739;44.224;22.528;2022-12-18T00:25:37;128.20;2252.80
66831;DHT22;53739;44.224;22.528;2022-12-18T06:17:34;77.70;2227.20
66831;DHT22;53739;44.224;22.528;2022-12-18T06:34:13;77.70;6476.80
66831;DHT22;53739;44.224;22.528;2022-12-18T06:41:15;77.70;6476.80
66831;DHT22;53739;44.224;22.528;2022-12-18T06:43:44;77.70;6476.80
66831;DHT22;53739;44.224;22.528;2022-12-18T06:52:57;77.60;6476.80
66831;DHT22;53739;44.224;22.528;2022-12-18T06:55:23;77.60;6476.80
66831;DHT22;53739;44.224;22.528;2022-12-18T06:57:54;77.60;6476.80
66831;DHT22;53739;44.224;22.528;2022-12-18T07:00:23;77.60;6476.80
66831;DHT22;53739;44.224;22.528;2022-12-18T07:02:48;77.70;6476.80
66831;DHT22;53739;44.224;22.528;2022-12-18T07:11:35;77.70;6476.80
66831;DHT22;53739;44.224;22.528;2022-12-18T07:14:01;77.70;6476.80
66831;DHT22;53739;44.224;22.528;2022-12-18T07:16:27;77.70;6476.80
66831;DHT22;53739;44.224;22.528;2022-12-18T07:19:02;77.70;6476.80
66831;DHT22;53739;44.224;22.528;2022-12-18T07:21:37;77.70;6476.80
66831;DHT22;53739;44.224;22.528;2022-12-18T07:30:51;77.70;6476.80
66831;DHT22;53739;44.224;22.528;2022-12-18T07:33:17;77.70;6476.80
66831;DHT22;53739;44.224;22.528;2022-12-18T07:35:42;102.40;6476.80
66831;DHT22;53739;44.224;22.528;2022-12-18T07:38:09;77.70;6476.80
66831;DHT22;53739;44.224;22.528;2022-12-18T07:40:34;77.70;6476.80
66831;DHT22;53739;44.224;22.528;2022-12-18T07:43:00;77.70;6476.80
66831;DHT22;53739;44.224;22.528;2022-12-18T07:45:29;77.70;6476.80
66831;DHT22;53739;44.224;22.528;2022-12-18T07:47:55;77.70;6476.80
66831;DHT22;53739;44.224;22.528;2022-12-18T07:50:21;77.70;6476.80
66831;DHT22;53739;44.224;22.528;2022-12-18T07:52:47;77.70;6476.80
66831;DHT22;53739;44.224;22.528;2022-12-18T07:55:13;77.70;6476.80
66831;DHT22;53739;44.224;22.528;2022-12-18T07:57:50;77.70;6476.80
66831;DHT22;53739;44.224;22.528;2022-12-18T08:00:16;77.70;6476.80
66831;DHT22;53739;44.224;22.528;2022-12-18T08:02:46;102.40;6476.80
66831;DHT22;53739;44.224;22.528;2022-12-18T08:05:12;102.40;6476.80
66831;DHT22;53739;44.224;22.528;2022-12-18T08:07:46;77.70;6476.80
66831;DHT22;53739;44.224;22.528;2022-12-18T08:10:13;77.70;6476.80
66831;DHT22;53739;44.224;22.528;2022-12-18T08:12:39;77.70;6476.80
66831;DHT22;53739;44.224;22.528;2022-12-18T08:15:05;77.70;6476.80
66831;DHT22;53739;44.224;22.528;2022-12-18T08:17:32;102.40;6476.80
66831;DHT22;53739;44.224;22.528;2022-12-18T08:19:57;102.40;6476.80
66831;DHT22;53739;44.224;22.528;2022-12-18T08:22:23;102.50;6476.80
66831;DHT22;53739;44.224;22.528;2022-12-18T08:24:49;102.50;6476.80
66831;DHT22;53739;44.224;22.528;2022-12-18T08:27:15;102.70;6476.80
66831;DHT22;53739;44.224;22.528;2022-12-18T08:29:41;103.00;230.40
66831;DHT22;53739;44.224;22.528;2022-12-18T08:32:08;103.20;6476.80
66831;DHT22;53739;44.224;22.528;2022-12-18T08:34:34;128.00;6502.40
66831;DHT22;53739;44.224;22.528;2022-12-18T08:36:59;128.20;6502.40
66831;DHT22;53739;44.224;22.528;2022-12-18T08:39:25;128.30;6502.40
66831;DHT22;53739;44.224;22.528;2022-12-18T08:41:51;128.40;6502.40
66831;DHT22;53739;44.224;22.528;2022-12-18T08:44:37;128.70;6502.40
66831;DHT22;53739;44.224;22.528;2022-12-18T08:47:03;128.70;6502.40
66831;DHT22;53739;44.224;22.528;2022-12-18T08:49:29;128.80;6502.40
66831;DHT22;53739;44.224;22.528;2022-12-18T08:51:56;153.60;6502.40
66831;DHT22;53739;44.224;22.528;2022-12-18T08:54:25;153.70;6502.40
66831;DHT22;53739;44.224;22.528;2022-12-18T08:56:52;153.90;6502.40
66831;DHT22;53739;44.224;22.528;2022-12-18T08:59:18;153.80;128.00
66831;DHT22;53739;44.224;22.528;2022-12-18T09:01:45;153.90;6502.40
66831;DHT22;53739;44.224;22.528;2022-12-18T09:04:12;154.00;128.00
66831;DHT22;53739;44.224;22.528;2022-12-18T09:06:39;154.20;6502.40
66831;DHT22;53739;44.224;22.528;2022-12-18T09:09:05;154.00;6502.40
66831;DHT22;53739;44.224;22.528;2022-12-18T09:11:32;154.10;6502.40
66831;DHT22;53739;44.224;22.528;2022-12-18T09:14:00;154.10;6502.40
66831;DHT22;53739;44.224;22.528;2022-12-18T09:16:27;153.90;6502.40
66831;DHT22;53739;44.224;22.528;2022-12-18T09:18:55;153.90;6502.40
66831;DHT22;53739;44.224;22.528;2022-12-18T09:21:27;153.90;6502.40
66831;DHT22;53739;44.224;22.528;2022-12-18T09:23:54;153.80;6502.40
66831;DHT22;53739;44.224;22.528;2022-12-18T09:26:22;154.10;6502.40
66831;DHT22;53739;44.224;22.528;2022-12-18T09:28:48;154.00;6502.40
66831;DHT22;53739;44.224;22.528;2022-12-18T09:31:15;154.00;6502.40
66831;DHT22;53739;44.224;22.528;2022-12-18T09:33:41;154.10;6502.40
66831;DHT22;53739;44.224;22.528;2022-12-18T09:36:09;154.10;6502.40
66831;DHT22;53739;44.224;22.528;2022-12-18T09:38:36;154.40;6502.40
66831;DHT22;53739;44.224;22.528;2022-12-18T09:44:29;154.00;6502.40
66831;DHT22;53739;44.224;22.528;2022-12-18T09:47:07;153.60;6502.40
66831;DHT22;53739;44.224;22.528;2022-12-18T09:49:39;128.60;6502.40
66831;DHT22;53739;44.224;22.528;2022-12-18T09:52:27;128.70;204.80
66831;DHT22;53739;44.224;22.528;2022-12-18T09:55:34;128.60;6502.40
66831;DHT22;53739;44.224;22.528;2022-12-18T09:58:34;128.40;6502.40
66831;DHT22;53739;44.224;22.528;2022-12-18T10:01:06;128.40;6502.40
66831;DHT22;53739;44.224;22.528;2022-12-18T10:03:45;128.30;6502.40
66831;DHT22;53739;44.224;22.528;2022-12-18T10:11:57;128.10;6502.40
66831;DHT22;53739;44.224;22.528;2022-12-18T10:22:57;128.60;6502.40
66831;DHT22;53739;44.224;22.528;2022-12-18T10:28:22;154.00;6502.40
66831;DHT22;53739;44.224;22.528;2022-12-18T10:30:48;154.50;6502.40
66831;DHT22;53739;44.224;22.528;2022-12-18T10:33:23;179.50;6502.40
66831;DHT22;53739;44.224;22.528;2022-12-18T10:35:51;179.80;460.80
66831;DHT22;53739;44.224;22.528;2022-12-18T10:38:27;204.80;6502.40
66831;DHT22;53739;44.224;22.528;2022-12-18T10:41:21;180.00;6502.40
66831;DHT22;53739;44.224;22.528;2022-12-18T10:44:18;180.00;6502.40
66831;DHT22;53739;44.224;22.528;2022-12-18T10:46:46;179.90;6502.40
66831;DHT22;53739;44.224;22.528;2022-12-18T10:49:27;180.10;6502.40
66831;DHT22;53739;44.224;22.528;2022-12-18T10:52:25;180.00;6502.40
66831;DHT22;53739;44.224;22.528;2022-12-18T10:54:54;179.70;128.00
66831;DHT22;53739;44.224;22.528;2022-12-18T10:59:54;179.20;358.40
66831;DHT22;53739;44.224;22.528;2022-12-18T11:02:39;154.50;6502.40
66831;DHT22;53739;44.224;22.528;2022-12-18T11:05:32;154.50;6502.40
66831;DHT22;53739;44.224;22.528;2022-12-18T11:08:00;154.30;6502.40
66831;DHT22;53739;44.224;22.528;2022-12-18T11:10:37;154.30;6502.40
66831;DHT22;53739;44.224;22.528;2022-12-18T11:13:16;154.30;6502.40
66831;DHT22;53739;44.224;22.528;2022-12-18T11:15:43;154.40;6502.40
66831;DHT22;53739;44.224;22.528;2022-12-18T11:18:29;154.50;6502.40
66831;DHT22;53739;44.224;22.528;2022-12-18T11:20:57;154.40;6502.40
66831;DHT22;53739;44.224;22.528;2022-12-18T11:23:24;154.40;6502.40
66831;DHT22;53739;44.224;22.528;2022-12-18T11:25:56;154.40;6502.40
66831;DHT22;53739;44.224;22.528;2022-12-18T11:31:22;179.20;6502.40
66831;DHT22;53739;44.224;22.528;2022-12-18T11:34:00;154.40;6502.40
66831;DHT22;53739;44.224;22.528;2022-12-18T11:36:31;154.50;6502.40
66831;DHT22;53739;44.224;22.528;2022-12-18T11:39:02;154.50;6502.40
66831;DHT22;53739;44.224;22.528;2022-12-18T11:47:24;179.20;6502.40
66831;DHT22;53739;44.224;22.528;2022-12-18T11:49:53;179.50;6502.40
66831;DHT22;53739;44.224;22.528;2022-12-18T11:52:33;179.50;6502.40
66831;DHT22;53739;44.224;22.528;2022-12-18T11:55:15;179.30;128.00
66831;DHT22;53739;44.224;22.528;2022-12-18T12:00:23;154.30;6502.40
66831;DHT22;53739;44.224;22.528;2022-12-18T12:03:13;154.20;6502.40
66831;DHT22;53739;44.224;22.528;2022-12-18T12:19:53;153.60;6502.40
66831;DHT22;53739;44.224;22.528;2022-12-18T12:22:53;153.70;6502.40
66831;DHT22;53739;44.224;22.528;2022-12-18T12:25:41;153.90;6502.40
66831;DHT22;53739;44.224;22.528;2022-12-18T12:38:46;153.60;6502.40
66831;DHT22;53739;44.224;22.528;2022-12-18T12:41:23;128.70;6502.40
66831;DHT22;53739;44.224;22.528;2022-12-18T12:44:15;128.70;6502.40
66831;DHT22;53739;44.224;22.528;2022-12-18T12:46:42;128.60;6502.40
66831;DHT22;53739;44.224;22.528;2022-12-18T12:49:20;128.40;6502.40
66831;DHT22;53739;44.224;22.528;2022-12-18T12:51:53;128.10;6502.40
66831;DHT22;53739;44.224;22.528;2022-12-18T12:54:24;128.00;6502.40
66831;DHT22;53739;44.224;22.528;2022-12-18T12:59:45;103.30;6476.80
66831;DHT22;53739;44.224;22.528;2022-12-18T13:05:01;103.20;6476.80
66831;DHT22;53739;44.224;22.528;2022-12-18T13:07:41;103.10;6476.80
66831;DHT22;53739;44.224;22.528;2022-12-18T13:15:31;102.90;6476.80
66831;DHT22;53739;44.224;22.528;2022-12-18T13:18:11;102.90;6476.80
66831;DHT22;53739;44.224;22.528;2022-12-18T13:20:48;102.90;6476.80
66831;DHT22;53739;44.224;22.528;2022-12-18T13:26:28;102.80;6476.80
66831;DHT22;53739;44.224;22.528;2022-12-18T13:34:15;102.80;6476.80
66831;DHT22;53739;44.224;22.528;2022-12-18T13:36:41;102.70;6476.80
66831;DHT22;53739;44.224;22.528;2022-12-18T13:41:42;102.60;256.00
66831;DHT22;53739;44.224;22.528;2022-12-18T13:44:37;102.40;6476.80
66831;DHT22;53739;44.224;22.528;2022-12-18T13:47:05;102.40;6476.80
66831;DHT22;53739;44.224;22.528;2022-12-18T13:49:49;102.40;6476.80
66831;DHT22;53739;44.224;22.528;2022-12-18T13:52:19;77.70;6476.80
66831;DHT22;53739;44.224;22.528;2022-12-18T13:54:59;77.70;6476.80
66831;DHT22;53739;44.224;22.528;2022-12-18T13:57:27;77.60;6476.80
66831;DHT22;53739;44.224;22.528;2022-12-18T13:59:54;77.60;6476.80
66831;DHT22;53739;44.224;22.528;2022-12-18T14:02:26;77.60;6476.80
66831;DHT22;53739;44.224;22.528;2022-12-18T14:04:53;77.50;6476.80
66831;DHT22;53739;44.224;22.528;2022-12-18T14:07:25;77.50;6476.80
66831;DHT22;53739;44.224;22.528;2022-12-18T14:09:56;77.40;6476.80
66831;DHT22;53739;44.224;22.528;2022-12-18T14:12:26;77.40;6476.80
66831;DHT22;53739;44.224;22.528;2022-12-18T14:15:26;77.30;6476.80
66831;DHT22;53739;44.224;22.528;2022-12-18T14:18:12;77.20;6476.80
66831;DHT22;53739;44.224;22.528;2022-12-18T14:20:44;77.20;6476.80
66831;DHT22;53739;44.224;22.528;2022-12-18T14:23:30;77.10;6476.80
66831;DHT22;53739;44.224;22.528;2022-12-18T14:25:56;77.10;6476.80
66831;DHT22;53739;44.224;22.528;2022-12-18T14:28:23;77.10;6476.80
66831;DHT22;53739;44.224;22.528;2022-12-18T14:30:49;77.20;6476.80
66831;DHT22;53739;44.224;22.528;2022-12-18T14:33:18;77.20;6476.80
66831;DHT22;53739;44.224;22.528;2022-12-18T14:36:04;77.10;6476.80
66831;DHT22;53739;44.224;22.528;2022-12-18T14:43:37;77.00;6476.80
66831;DHT22;53739;44.224;22.528;2022-12-18T14:46:06;77.00;6476.80
66831;DHT22;53739;44.224;22.528;2022-12-18T14:48:50;77.00;6476.80
66831;DHT22;53739;44.224;22.528;2022-12-18T14:51:19;76.90;6476.80
66831;DHT22;53739;44.224;22.528;2022-12-18T14:56:25;76.80;6476.80
66831;DHT22;53739;44.224;22.528;2022-12-18T14:59:05;76.80;6476.80
66831;DHT22;53739;44.224;22.528;2022-12-18T15:01:44;76.80;6476.80
66831;DHT22;53739;44.224;22.528;2022-12-18T15:04:35;52.10;6476.80
66831;DHT22;53739;44.224;22.528;2022-12-18T15:07:20;52.10;6476.80
66831;DHT22;53739;44.224;22.528;2022-12-18T15:10:15;52.00;307.20
66831;DHT22;53739;44.224;22.528;2022-12-18T15:12:48;51.90;6476.80
66831;DHT22;53739;44.224;22.528;2022-12-18T15:18:00;51.80;6476.80
66831;DHT22;53739;44.224;22.528;2022-12-18T15:20:26;51.80;6476.80
66831;DHT22;53739;44.224;22.528;2022-12-18T15:22:52;51.80;6476.80
66831;DHT22;53739;44.224;22.528;2022-12-18T15:25:33;51.80;6476.80
66831;DHT22;53739;44.224;22.528;2022-12-18T15:28:01;51.80;6476.80
66831;DHT22;53739;44.224;22.528;2022-12-18T15:30:26;51.70;6476.80
66831;DHT22;53739;44.224;22.528;2022-12-18T15:33:16;51.70;6476.80
66831;DHT22;53739;44.224;22.528;2022-12-18T15:35:42;51.70;6476.80
66831;DHT22;53739;44.224;22.528;2022-12-18T15:38:08;51.60;6476.80
66831;DHT22;53739;44.224;22.528;2022-12-18T15:40:34;51.70;6476.80
66831;DHT22;53739;44.224;22.528;2022-12-18T15:43:00;51.60;6476.80
66831;DHT22;53739;44.224;22.528;2022-12-18T15:45:44;51.60;6476.80
66831;DHT22;53739;44.224;22.528;2022-12-18T15:48:21;51.60;6476.80
66831;DHT22;53739;44.224;22.528;2022-12-18T15:50:50;51.60;6476.80
66831;DHT22;53739;44.224;22.528;2022-12-18T15:53:17;51.60;6476.80
66831;DHT22;53739;44.224;22.528;2022-12-18T15:55:46;51.60;6476.80
66831;DHT22;53739;44.224;22.528;2022-12-18T15:58:31;51.60;6476.80
66831;DHT22;53739;44.224;22.528;2022-12-18T16:00:59;51.60;6476.80
66831;DHT22;53739;44.224;22.528;2022-12-18T16:03:28;51.60;6476.80
66831;DHT22;53739;44.224;22.528;2022-12-18T16:05:54;51.70;6476.80
66831;DHT22;53739;44.224;22.528;2022-12-18T16:08:20;51.60;6476.80
66831;DHT22;53739;44.224;22.528;2022-12-18T16:10:45;51.60;6476.80
66831;DHT22;53739;44.224;22.528;2022-12-18T16:13:13;51.70;6476.80
66831;DHT22;53739;44.224;22.528;2022-12-18T16:15:41;51.70;6476.80
66831;DHT22;53739;44.224;22.528;2022-12-18T16:18:07;51.70;6476.80
66831;DHT22;53739;44.224;22.528;2022-12-18T16:20:33;51.70;6476.80
66831;DHT22;53739;44.224;22.528;2022-12-18T16:22:59;51.70;6476.80
66831;DHT22;53739;44.224;22.528;2022-12-18T16:25:28;51.70;6476.80
66831;DHT22;53739;44.224;22.528;2022-12-18T16:27:55;51.70;6476.80
66831;DHT22;53739;44.224;22.528;2022-12-18T16:30:23;51.70;6476.80
66831;DHT22;53739;44.224;22.528;2022-12-18T16:32:50;51.70;6476.80
66831;DHT22;53739;44.224;22.528;2022-12-18T16:35:16;51.70;6476.80
66831;DHT22;53739;44.224;22.528;2022-12-18T16:37:42;51.80;6476.80
66831;DHT22;53739;44.224;22.528;2022-12-18T16:40:11;51.80;6476.80
66831;DHT22;53739;44.224;22.528;2022-12-18T16:42:39;51.80;6476.80
66831;DHT22;53739;44.224;22.528;2022-12-18T16:45:08;51.80;6476.80
66831;DHT22;53739;44.224;22.528;2022-12-18T16:47:34;51.90;6476.80
66831;DHT22;53739;44.224;22.528;2022-12-18T16:50:00;51.90;6476.80
66831;DHT22;53739;44.224;22.528;2022-12-18T16:52:28;51.90;6476.80
66831;DHT22;53739;44.224;22.528;2022-12-18T16:54:54;51.90;6476.80
66831;DHT22;53739;44.224;22.528;2022-12-18T16:57:21;51.90;6476.80
66831;DHT22;53739;44.224;22.528;2022-12-18T16:59:47;51.90;6476.80
66831;DHT22;53739;44.224;22.528;2022-12-18T17:02:18;51.90;6476.80
66831;DHT22;53739;44.224;22.528;2022-12-18T17:04:45;51.90;6476.80
66831;DHT22;53739;44.224;22.528;2022-12-18T17:07:11;51.80;6476.80
66831;DHT22;53739;44.224;22.528;2022-12-18T17:09:38;51.80;6476.80
66831;DHT22;53739;44.224;22.528;2022-12-18T17:12:04;51.80;6476.80
66831;DHT22;53739;44.224;22.528;2022-12-18T17:14:31;51.80;6476.80
66831;DHT22;53739;44.224;22.528;2022-12-18T17:16:57;51.80;6476.80
66831;DHT22;53739;44.224;22.528;2022-12-18T17:19:25;51.80;6476.80
66831;DHT22;53739;44.224;22.528;2022-12-18T17:21:51;51.80;6476.80
66831;DHT22;53739;44.224;22.528;2022-12-18T17:24:17;51.80;6502.40
66831;DHT22;53739;44.224;22.528;2022-12-18T17:26:44;51.80;6476.80
66831;DHT22;53739;44.224;22.528;2022-12-18T17:29:15;51.80;6476.80
66831;DHT22;53739;44.224;22.528;2022-12-18T17:31:41;51.80;6476.80
66831;DHT22;53739;44.224;22.528;2022-12-18T17:34:09;51.80;6476.80
66831;DHT22;53739;44.224;22.528;2022-12-18T17:36:36;51.80;6476.80
66831;DHT22;53739;44.224;22.528;2022-12-18T17:39:03;51.90;6476.80
66831;DHT22;53739;44.224;22.528;2022-12-18T17:41:30;51.80;6476.80
66831;DHT22;53739;44.224;22.528;2022-12-18T17:44:01;51.80;6476.80
66831;DHT22;53739;44.224;22.528;2022-12-18T17:46:29;51.80;6476.80
66831;DHT22;53739;44.224;22.528;2022-12-18T17:48:59;51.80;6476.80
66831;DHT22;53739;44.224;22.528;2022-12-18T17:51:25;51.80;6476.80
66831;DHT22;53739;44.224;22.528;2022-12-18T17:53:51;51.80;6476.80
66831;DHT22;53739;44.224;22.528;2022-12-18T17:56:18;51.90;6476.80
66831;DHT22;53739;44.224;22.528;2022-12-18T17:58:45;51.90;6476.80
66831;DHT22;53739;44.224;22.528;2022-12-18T18:01:14;51.90;6476.80
66831;DHT22;53739;44.224;22.528;2022-12-18T18:03:40;51.90;6476.80
66831;DHT22;53739;44.224;22.528;2022-12-18T18:06:07;51.90;6476.80
66831;DHT22;53739;44.224;22.528;2022-12-18T18:08:34;52.00;6476.80
66831;DHT22;53739;44.224;22.528;2022-12-18T18:11:05;52.00;6476.80
66831;DHT22;53739;44.224;22.528;2022-12-18T18:13:50;52.00;486.40
66831;DHT22;53739;44.224;22.528;2022-12-18T18:16:38;51.90;6476.80
66831;DHT22;53739;44.224;22.528;2022-12-18T18:19:07;52.00;6476.80
66831;DHT22;53739;44.224;22.528;2022-12-18T18:21:34;51.90;6476.80
66831;DHT22;53739;44.224;22.528;2022-12-18T18:24:03;52.00;6476.80
66831;DHT22;53739;44.224;22.528;2022-12-18T18:26:33;52.00;6476.80
66831;DHT22;53739;44.224;22.528;2022-12-18T18:29:00;52.00;6476.80
66831;DHT22;53739;44.224;22.528;2022-12-18T18:31:28;52.00;6476.80
66831;DHT22;53739;44.224;22.528;2022-12-18T18:33:55;52.00;6476.80
66831;DHT22;53739;44.224;22.528;2022-12-18T18:36:22;52.00;256.00
66831;DHT22;53739;44.224;22.528;2022-12-18T18:38:48;52.10;6476.80
66831;DHT22;53739;44.224;22.528;2022-12-18T18:41:15;52.00;6476.80
66831;DHT22;53739;44.224;22.528;2022-12-18T18:43:41;52.00;6476.80
66831;DHT22;53739;44.224;22.528;2022-12-18T18:46:08;52.10;512.00
66831;DHT22;53739;44.224;22.528;2022-12-18T18:48:36;52.10;6476.80
66831;DHT22;53739;44.224;22.528;2022-12-18T18:51:07;52.00;6476.80
66831;DHT22;53739;44.224;22.528;2022-12-18T18:53:40;52.10;6476.80
66831;DHT22;53739;44.224;22.528;2022-12-18T18:56:07;52.10;6476.80
66831;DHT22;53739;44.224;22.528;2022-12-18T18:58:34;52.10;6476.80
66831;DHT22;53739;44.224;22.528;2022-12-18T19:03:30;52.10;6476.80
66831;DHT22;53739;44.224;22.528;2022-12-18T19:05:58;52.10;6476.80
66831;DHT22;53739;44.224;22.528;2022-12-18T19:08:27;52.10;307.20
66831;DHT22;53739;44.224;22.528;2022-12-18T19:10:55;52.10;6476.80
66831;DHT22;53739;44.224;22.528;2022-12-18T19:13:23;52.10;6476.80
66831;DHT22;53739;44.224;22.528;2022-12-18T19:16:00;52.10;384.00
66831;DHT22;53739;44.224;22.528;2022-12-18T19:18:27;52.10;6476.80
66831;DHT22;53739;44.224;22.528;2022-12-18T19:20:57;52.10;6476.80
66831;DHT22;53739;44.224;22.528;2022-12-18T19:23:23;52.10;6476.80
66831;DHT22;53739;44.224;22.528;2022-12-18T19:25:50;52.10;6476.80
66831;DHT22;53739;44.224;22.528;2022-12-18T19:28:16;76.80;6476.80
66831;DHT22;53739;44.224;22.528;2022-12-18T19:30:42;76.80;6476.80
66831;DHT22;53739;44.224;22.528;2022-12-18T19:33:08;76.80;6476.80
66831;DHT22;53739;44.224;22.528;2022-12-18T19:35:34;76.80;6476.80
66831;DHT22;53739;44.224;22.528;2022-12-18T19:38:00;76.80;6476.80
66831;DHT22;53739;44.224;22.528;2022-12-18T19:40:25;76.80;6476.80
66831;DHT22;53739;44.224;22.528;2022-12-18T19:42:51;76.80;486.40
66831;DHT22;53739;44.224;22.528;2022-12-18T19:45:17;76.80;6528.00
66831;DHT22;53739;44.224;22.528;2022-12-18T19:47:43;76.80;6476.80
66831;DHT22;53739;44.224;22.528;2022-12-18T19:50:09;76.80;6476.80
66831;DHT22;53739;44.224;22.528;2022-12-18T19:52:35;76.90;6476.80
66831;DHT22;53739;44.224;22.528;2022-12-18T19:55:01;76.80;6476.80
66831;DHT22;53739;44.224;22.528;2022-12-18T19:57:27;76.80;6476.80
66831;DHT22;53739;44.224;22.528;2022-12-18T19:59:53;76.90;358.40
66831;DHT22;53739;44.224;22.528;2022-12-18T20:02:19;76.90;6476.80
66831;DHT22;53739;44.224;22.528;2022-12-18T20:04:45;76.90;6476.80
66831;DHT22;53739;44.224;22.528;2022-12-18T20:07:11;76.90;6476.80
66831;DHT22;53739;44.224;22.528;2022-12-18T20:09:37;76.90;6476.80
66831;DHT22;53739;44.224;22.528;2022-12-18T20:12:03;77.00;230.40
66831;DHT22;53739;44.224;22.528;2022-12-18T20:14:29;77.00;6476.80
66831;DHT22;53739;44.224;22.528;2022-12-18T20:16:55;77.00;6476.80
66831;DHT22;53739;44.224;22.528;2022-12-18T20:19:22;77.00;6476.80
66831;DHT22;53739;44.224;22.528;2022-12-18T20:21:48;77.00;6476.80
66831;DHT22;53739;44.224;22.528;2022-12-18T20:24:14;77.00;6476.80
66831;DHT22;53739;44.224;22.528;2022-12-18T20:26:39;77.00;6476.80
66831;DHT22;53739;44.224;22.528;2022-12-18T20:29:05;77.10;6476.80
66831;DHT22;53739;44.224;22.528;2022-12-18T20:31:31;77.20;6476.80
66831;DHT22;53739;44.224;22.528;2022-12-18T20:33:57;77.10;6476.80
66831;DHT22;53739;44.224;22.528;2022-12-18T20:36:24;77.20;6476.80
66831;DHT22;53739;44.224;22.528;2022-12-18T20:38:50;77.20;6502.40
66831;DHT22;53739;44.224;22.528;2022-12-18T20:41:20;77.20;6476.80
66831;DHT22;53739;44.224;22.528;2022-12-18T20:43:46;77.20;6476.80
66831;DHT22;53739;44.224;22.528;2022-12-18T20:46:16;77.20;6476.80
66831;DHT22;53739;44.224;22.528;2022-12-18T20:48:42;77.30;6476.80
66831;DHT22;53739;44.224;22.528;2022-12-18T20:51:12;77.30;6476.80
66831;DHT22;53739;44.224;22.528;2022-12-18T20:53:38;77.40;6476.80
66831;DHT22;53739;44.224;22.528;2022-12-18T20:56:14;77.30;128.00
66831;DHT22;53739;44.224;22.528;2022-12-18T20:58:40;77.40;128.00
66831;DHT22;53739;44.224;22.528;2022-12-18T21:01:14;77.40;204.80
66831;DHT22;53739;44.224;22.528;2022-12-18T21:03:41;77.40;6476.80
66831;DHT22;53739;44.224;22.528;2022-12-18T21:06:11;77.40;6476.80
66831;DHT22;53739;44.224;22.528;2022-12-18T21:08:38;77.40;1664.00
66831;DHT22;53739;44.224;22.528;2022-12-18T21:11:25;77.40;1408.00
66831;DHT22;53739;44.224;22.528;2022-12-18T21:14:15;77.40;6476.80
66831;DHT22;53739;44.224;22.528;2022-12-18T21:16:41;77.50;2022.40
66831;DHT22;53739;44.224;22.528;2022-12-18T21:19:09;77.40;128.00
66831;DHT22;53739;44.224;22.528;2022-12-18T21:21:35;77.40;6476.80
66831;DHT22;53739;44.224;22.528;2022-12-18T21:24:01;77.40;6476.80
66831;DHT22;53739;44.224;22.528;2022-12-18T21:26:27;77.40;6476.80
66831;DHT22;53739;44.224;22.528;2022-12-18T21:28:54;77.40;6476.80
66831;DHT22;53739;44.224;22.528;2022-12-18T21:31:22;77.40;6476.80
66831;DHT22;53739;44.224;22.528;2022-12-18T21:33:48;77.40;6476.80
66831;DHT22;53739;44.224;22.528;2022-12-18T21:36:15;77.40;6476.80
66831;DHT22;53739;44.224;22.528;2022-12-18T21:38:41;77.40;6476.80
66831;DHT22;53739;44.224;22.528;2022-12-18T21:41:08;77.50;256.00
66831;DHT22;53739;44.224;22.528;2022-12-18T21:43:37;77.50;6476.80
66831;DHT22;53739;44.224;22.528;2022-12-18T21:46:21;77.50;6476.80
66831;DHT22;53739;44.224;22.528;2022-12-18T21:48:47;77.40;6476.80
66831;DHT22;53739;44.224;22.528;2022-12-18T21:51:13;77.40;6476.80
66831;DHT22;53739;44.224;22.528;2022-12-18T21:53:38;77.40;6476.80
66831;DHT22;53739;44.224;22.528;2022-12-18T21:56:04;77.40;6476.80
66831;DHT22;53739;44.224;22.528;2022-12-18T21:58:30;77.40;6476.80
66831;DHT22;53739;44.224;22.528;2022-12-18T22:00:56;77.50;6476.80
66831;DHT22;53739;44.224;22.528;2022-12-18T22:03:22;77.50;6476.80
66831;DHT22;53739;44.224;22.528;2022-12-18T22:05:48;77.50;6476.80
66831;DHT22;53739;44.224;22.528;2022-12-18T22:08:14;77.40;128.00
66831;DHT22;53739;44.224;22.528;2022-12-18T22:10:39;77.50;6476.80
66831;DHT22;53739;44.224;22.528;2022-12-18T22:13:06;77.40;6476.80
66831;DHT22;53739;44.224;22.528;2022-12-18T22:15:32;77.50;6476.80
66831;DHT22;53739;44.224;22.528;2022-12-18T22:17:58;77.60;6476.80
66831;DHT22;53739;44.224;22.528;2022-12-18T22:20:24;77.60;1356.80
66831;DHT22;53739;44.224;22.528;2022-12-18T22:22:49;77.70;1510.40
66831;DHT22;53739;44.224;22.528;2022-12-18T22:25:17;77.70;921.60
66831;DHT22;53739;44.224;22.528;2022-12-18T22:27:43;77.70;6476.80
66831;DHT22;53739;44.224;22.528;2022-12-18T22:30:29;77.60;204.80
66831;DHT22;53739;44.224;22.528;2022-12-18T22:32:55;77.60;6476.80
66831;DHT22;53739;44.224;22.528;2022-12-18T22:35:21;77.70;6476.80
66831;DHT22;53739;44.224;22.528;2022-12-18T22:37:47;77.70;6476.80
66831;DHT22;53739;44.224;22.528;2022-12-18T22:40:18;77.70;6476.80
66831;DHT22;53739;44.224;22.528;2022-12-18T22:42:44;77.60;6476.80
66831;DHT22;53739;44.224;22.528;2022-12-18T22:45:10;77.60;6476.80
66831;DHT22;53739;44.224;22.528;2022-12-18T22:47:36;77.60;6476.80
66831;DHT22;53739;44.224;22.528;2022-12-18T22:50:01;77.70;6476.80
66831;DHT22;53739;44.224;22.528;2022-12-18T22:52:27;77.70;6476.80
66831;DHT22;53739;44.224;22.528;2022-12-18T22:54:53;77.60;6476.80
66831;DHT22;53739;44.224;22.528;2022-12-18T22:57:19;77.50;6476.80
66831;DHT22;53739;44.224;22.528;2022-12-18T22:59:46;77.50;6476.80
66831;DHT22;53739;44.224;22.528;2022-12-18T23:02:11;77.60;6476.80
66831;DHT22;53739;44.224;22.528;2022-12-18T23:04:37;77.50;6476.80
66831;DHT22;53739;44.224;22.528;2022-12-18T23:07:04;77.50;460.80
66831;DHT22;53739;44.224;22.528;2022-12-18T23:09:30;77.50;6476.80
66831;DHT22;53739;44.224;22.528;2022-12-18T23:11:56;77.50;6476.80
66831;DHT22;53739;44.224;22.528;2022-12-18T23:14:22;77.60;6476.80
66831;DHT22;53739;44.224;22.528;2022-12-18T23:16:48;77.50;6476.80
66831;DHT22;53739;44.224;22.528;2022-12-18T23:19:14;77.60;6476.80
66831;DHT22;53739;44.224;22.528;2022-12-18T23:21:40;77.60;6476.80
66831;DHT22;53739;44.224;22.528;2022-12-18T23:24:06;77.60;6476.80